Forside
METAR-TAF:

METAR-TAF

Lufthavne :

Chicago Rockford International Airport

Rockford, Illinois, USA

Breddekreds: 42-11-34N, længdekreds: 089-05-36W, højde: 224 m

Aktuelle vejr

Denne rapport blev lavet for 19 minutter siden, kl. 18:54 UTC
Vind 5 kt fra vestnordvest
Temperatur 8°C
Fugtighed 29%
Tryk 1027 hPa
Sigt: 16.1 km
Nogle få skyer i en højde af 25000 ft

METAR: KRFD 021854Z 30005KT 10SM FEW250 08/M09 A3034 RMK AO2 SLP282 T00831089

Tid: 13:13 (19:13 UTC)

Vejrudsigter

Denne rapport blev lavet for 1 time og 48 minutter siden, kl. 17:25 UTC
Foreløbig gælder fra 02 på 18 UTC til 03 på 18 UTC
Vind 6 kt fra vestnordvest
Sigt: 10 km
Spredte skyer i en højde af 25000 ft
Fra 03 på 1500 UTC
Vind 12 kt fra vestsydvest med vindstød på up til 20 kt
Sigt: 10 km
Spredte skyer i en højde af 25000 ft

TAF: KRFD 021725Z 0218/0318 29006KT P6SM SCT250 FM031500 25012G20KT P6SM SCT250

Vejrobservationer og prognoser fra mere end 4000 lufthavne (METAR og TAF).

De gule og røde prikker repræsenterer de meteorologiske stationer.

Flyt musen over at se navnet på stationen.

Så klik over at se vejr observationer og prognoser.

At skifte det kort: Klik på de grønne knapper med et sort kors for at zoome ind; på den grønne knap med en bindestreg for at zoome ud; eller på de grønne pile for tilstødende kort.


METAR-TAF: